Time;durP1;ratioP1;P1;durP2;ratioP2;P2;SDS_P1;SDS_P2;PMS_P1;PMS_P2;Temp;Humidity;BMP_temperature;BMP_pressure;BME280_temperature;BME280_humidity;BME280_pressure;Samples;Min_cycle;Max_cycle;Signal;HPM_P1;HPM_P2
2022/02/20 00:00:35;;;;;;;4.60;0.38;;;;;;;;;;5103449;28;20389;-72
2022/02/20 00:03:01;;;;;;;5.25;0.80;;;;;;;;;;5105180;28;20054;-72
2022/02/20 00:05:26;;;;;;;3.83;0.47;;;;;;;;;;5104786;28;20083;-72
2022/02/20 00:07:52;;;;;;;3.78;0.63;;;;;;;;;;5105152;28;20021;-72
2022/02/20 00:10:17;;;;;;;1.55;0.38;;;;;;;;;;5104922;28;20028;-72
2022/02/20 00:12:42;;;;;;;2.47;0.50;;;;;;;;;;5104749;28;20028;-72
2022/02/20 00:15:08;;;;;;;0.82;0.50;;;;;;;;;;5104707;28;20031;-72
2022/02/20 00:17:33;;;;;;;4.72;0.95;;;;;;;;;;5103187;28;20039;-72
2022/02/20 00:19:59;;;;;;;6.25;0.60;;;;;;;;;;5104411;28;20031;-72
2022/02/20 00:22:24;;;;;;;0.93;0.50;;;;;;;;;;5104394;28;20046;-72
2022/02/20 00:24:50;;;;;;;6.32;1.27;;;;;;;;;;5103008;28;20405;-72
2022/02/20 00:27:15;;;;;;;5.20;1.20;;;;;;;;;;5104526;28;20024;-72
2022/02/20 00:29:40;;;;;;;5.18;1.38;;;;;;;;;;5104347;28;20036;-72
2022/02/20 00:32:06;;;;;;;3.55;0.80;;;;;;;;;;5104294;28;20031;-72
2022/02/20 00:34:32;;;;;;;6.32;0.90;;;;;;;;;;5104376;28;20028;-72
2022/02/20 00:36:57;;;;;;;2.88;1.42;;;;;;;;;;5103191;28;20028;-72
2022/02/20 00:39:22;;;;;;;8.00;1.35;;;;;;;;;;5104372;28;20355;-72
2022/02/20 00:41:48;;;;;;;2.17;0.80;;;;;;;;;;5103859;28;20095;-72
2022/02/20 00:44:13;;;;;;;5.13;1.30;;;;;;;;;;5102558;28;20035;-72
2022/02/20 00:46:39;;;;;;;3.63;1.40;;;;;;;;;;5102970;28;20028;-72
2022/02/20 00:49:04;;;;;;;8.45;1.27;;;;;;;;;;5104199;28;20032;-72
2022/02/20 00:51:29;;;;;;;4.65;1.08;;;;;;;;;;5104190;28;20375;-72
2022/02/20 00:53:55;;;;;;;5.05;1.13;;;;;;;;;;5102470;28;20035;-73
2022/02/20 00:56:20;;;;;;;4.50;0.93;;;;;;;;;;5103861;28;20055;-72
2022/02/20 00:58:45;;;;;;;3.22;0.55;;;;;;;;;;5103801;28;20028;-72
2022/02/20 01:01:11;;;;;;;12.95;1.08;;;;;;;;;;5103406;28;20381;-72
2022/02/20 01:03:36;;;;;;;4.60;0.70;;;;;;;;;;5103426;28;20061;-72
2022/02/20 01:06:02;;;;;;;8.15;1.05;;;;;;;;;;5102592;28;20061;-72
2022/02/20 01:08:27;;;;;;;9.23;1.73;;;;;;;;;;5103615;28;20025;-72
2022/02/20 01:10:53;;;;;;;9.55;1.90;;;;;;;;;;5102378;28;20471;-72
2022/02/20 01:13:19;;;;;;;1.25;0.55;;;;;;;;;;5103593;28;20047;-72
2022/02/20 01:15:44;;;;;;;6.72;1.40;;;;;;;;;;5103678;28;20029;-72
2022/02/20 01:18:09;;;;;;;6.30;1.15;;;;;;;;;;5103570;28;20039;-71
2022/02/20 01:20:35;;;;;;;1.73;0.70;;;;;;;;;;5103552;28;20023;-72
2022/02/20 01:23:00;;;;;;;5.70;1.20;;;;;;;;;;5103410;28;20059;-72
2022/02/20 01:25:26;;;;;;;6.28;0.85;;;;;;;;;;5102147;28;20024;-72
2022/02/20 01:27:51;;;;;;;3.67;1.17;;;;;;;;;;5103311;28;20445;-72
2022/02/20 01:30:16;;;;;;;6.70;1.13;;;;;;;;;;5101994;28;20463;-73
2022/02/20 01:32:42;;;;;;;6.90;0.98;;;;;;;;;;5103487;28;20031;-73
2022/02/20 01:35:08;;;;;;;7.28;0.88;;;;;;;;;;5103271;28;20031;-72
2022/02/20 01:37:34;;;;;;;6.72;1.30;;;;;;;;;;5103302;28;20103;-73
2022/02/20 01:39:59;;;;;;;6.03;1.58;;;;;;;;;;5101796;28;20055;-72
2022/02/20 01:42:25;;;;;;;9.82;1.45;;;;;;;;;;5103240;28;20032;-72
2022/02/20 01:44:51;;;;;;;9.65;0.88;;;;;;;;;;5103122;28;20070;-72
2022/02/20 01:47:16;;;;;;;5.50;1.73;;;;;;;;;;5101538;28;20069;-73
2022/02/20 01:49:43;;;;;;;7.38;1.65;;;;;;;;;;5102919;28;20028;-73
2022/02/20 01:52:13;;;;;;;4.55;1.70;;;;;;;;;;5102959;28;20092;-72
2022/02/20 01:54:38;;;;;;;8.43;2.05;;;;;;;;;;5102543;28;20079;-72
2022/02/20 01:57:04;;;;;;;8.93;1.70;;;;;;;;;;5102645;28;20032;-72
2022/02/20 01:59:30;;;;;;;6.75;1.25;;;;;;;;;;5103319;28;20047;-72
2022/02/20 02:01:55;;;;;;;4.10;1.30;;;;;;;;;;5101424;28;20028;-72
2022/02/20 02:04:21;;;;;;;6.22;1.27;;;;;;;;;;5103086;28;20032;-72
2022/02/20 02:06:47;;;;;;;2.28;0.93;;;;;;;;;;5101628;28;20035;-72
2022/02/20 02:09:14;;;;;;;2.67;0.95;;;;;;;;;;5102848;28;20092;-72
2022/02/20 02:11:41;;;;;;;5.80;1.13;;;;;;;;;;5102777;28;20023;-72
2022/02/20 02:14:07;;;;;;;8.35;1.02;;;;;;;;;;5102575;28;20087;-72
2022/02/20 02:16:32;;;;;;;5.15;0.88;;;;;;;;;;5102537;28;20031;-72
2022/02/20 02:18:58;;;;;;;10.02;1.65;;;;;;;;;;5101428;28;20028;-72
2022/02/20 02:21:23;;;;;;;4.82;1.45;;;;;;;;;;5102907;28;20055;-72
2022/02/20 02:23:48;;;;;;;3.00;0.82;;;;;;;;;;5102376;28;20044;-72
2022/02/20 02:26:15;;;;;;;5.97;1.17;;;;;;;;;;5102225;28;20024;-72
2022/02/20 02:28:41;;;;;;;3.88;1.52;;;;;;;;;;5101180;28;20039;-72
2022/02/20 02:31:07;;;;;;;1.30;0.60;;;;;;;;;;5100811;28;20032;-72
2022/02/20 02:33:34;;;;;;;9.05;1.45;;;;;;;;;;5101147;28;20032;-73
2022/02/20 02:36:01;;;;;;;3.03;1.00;;;;;;;;;;5102589;28;20028;-72
2022/02/20 02:38:27;;;;;;;4.68;0.77;;;;;;;;;;5102746;28;20043;-73
2022/02/20 02:40:57;;;;;;;3.08;0.70;;;;;;;;;;5102135;28;20024;-72
2022/02/20 02:43:22;;;;;;;2.42;0.60;;;;;;;;;;5102407;28;20028;-72
2022/02/20 02:45:48;;;;;;;2.50;0.55;;;;;;;;;;5102604;28;20027;-72
2022/02/20 02:48:13;;;;;;;6.65;0.82;;;;;;;;;;5102766;28;20106;-72
2022/02/20 02:50:38;;;;;;;2.65;0.90;;;;;;;;;;5102304;28;20119;-72
2022/02/20 02:53:05;;;;;;;2.75;0.65;;;;;;;;;;5102512;28;20035;-73
2022/02/20 02:55:31;;;;;;;1.95;0.60;;;;;;;;;;5100991;28;20043;-72
2022/02/20 02:57:57;;;;;;;2.90;0.60;;;;;;;;;;5102379;28;20032;-73
2022/02/20 03:00:22;;;;;;;5.35;0.77;;;;;;;;;;5104645;28;20024;-72
2022/02/20 03:02:47;;;;;;;4.20;1.00;;;;;;;;;;5106142;28;20111;-72
2022/02/20 03:05:13;;;;;;;2.17;0.60;;;;;;;;;;5104522;28;20053;-72
2022/02/20 03:07:38;;;;;;;3.30;0.88;;;;;;;;;;5106373;28;20034;-72
2022/02/20 03:10:04;;;;;;;4.07;0.60;;;;;;;;;;5106207;28;20039;-73
2022/02/20 03:12:29;;;;;;;1.98;0.50;;;;;;;;;;5106288;28;20028;-72
2022/02/20 03:14:55;;;;;;;3.40;0.73;;;;;;;;;;5105786;28;20412;-73
2022/02/20 03:17:20;;;;;;;2.78;0.82;;;;;;;;;;5104433;28;20039;-73
2022/02/20 03:19:45;;;;;;;3.42;0.35;;;;;;;;;;5104629;28;20063;-73
2022/02/20 03:22:11;;;;;;;3.90;0.82;;;;;;;;;;5105817;28;20032;-73
2022/02/20 03:24:36;;;;;;;2.00;0.47;;;;;;;;;;5105916;28;20032;-72
2022/02/20 03:27:02;;;;;;;6.10;0.85;;;;;;;;;;5105912;28;20035;-73
2022/02/20 03:29:27;;;;;;;2.72;0.70;;;;;;;;;;5104705;28;20056;-73
2022/02/20 03:31:53;;;;;;;3.25;0.82;;;;;;;;;;5105612;28;20032;-73
2022/02/20 03:34:18;;;;;;;1.02;0.70;;;;;;;;;;5105311;28;20039;-73
2022/02/20 03:36:43;;;;;;;2.97;1.23;;;;;;;;;;5105275;28;20060;-73
2022/02/20 03:39:09;;;;;;;4.72;0.88;;;;;;;;;;5104138;28;20032;-73
2022/02/20 03:41:34;;;;;;;2.58;1.15;;;;;;;;;;5105226;28;20032;-73
2022/02/20 03:43:59;;;;;;;7.53;1.40;;;;;;;;;;5104405;28;20372;-73
2022/02/20 03:46:25;;;;;;;3.38;0.90;;;;;;;;;;5105327;28;20119;-72
2022/02/20 03:48:50;;;;;;;2.05;0.82;;;;;;;;;;5104088;28;20035;-73
2022/02/20 03:51:16;;;;;;;3.63;0.75;;;;;;;;;;5103781;28;20028;-73
2022/02/20 03:53:42;;;;;;;4.07;0.85;;;;;;;;;;5103686;28;20110;-73
2022/02/20 03:56:08;;;;;;;9.30;1.08;;;;;;;;;;5105270;28;20030;-72
2022/02/20 03:58:33;;;;;;;2.17;0.75;;;;;;;;;;5103705;28;20081;-73
2022/02/20 04:00:58;;;;;;;2.85;0.70;;;;;;;;;;5104926;28;20085;-72
2022/02/20 04:03:24;;;;;;;5.05;1.27;;;;;;;;;;5105422;28;20070;-72
2022/02/20 04:05:49;;;;;;;1.08;0.80;;;;;;;;;;5104942;28;20482;-73
2022/02/20 04:08:15;;;;;;;5.65;0.57;;;;;;;;;;5105036;28;20035;-72
2022/02/20 04:10:40;;;;;;;9.25;0.73;;;;;;;;;;5104915;28;20322;-72
2022/02/20 04:13:06;;;;;;;8.27;1.20;;;;;;;;;;5104804;28;20038;-72
2022/02/20 04:15:32;;;;;;;5.82;0.98;;;;;;;;;;5104985;28;20028;-72
2022/02/20 04:17:57;;;;;;;1.20;0.47;;;;;;;;;;5103477;28;20100;-72
2022/02/20 04:20:22;;;;;;;5.30;0.82;;;;;;;;;;5104860;28;20028;-73
2022/02/20 04:22:48;;;;;;;3.97;0.70;;;;;;;;;;5103045;28;20133;-72
2022/02/20 04:25:15;;;;;;;4.82;0.73;;;;;;;;;;5104640;28;20115;-73
2022/02/20 04:27:43;;;;;;;2.00;0.65;;;;;;;;;;5104799;28;20039;-73
2022/02/20 04:30:09;;;;;;;4.80;0.80;;;;;;;;;;5103164;28;20024;-73
2022/02/20 04:32:35;;;;;;;2.42;0.50;;;;;;;;;;5104273;28;20109;-73
2022/02/20 04:35:01;;;;;;;2.40;0.60;;;;;;;;;;5104229;28;20039;-73
2022/02/20 04:37:27;;;;;;;6.43;1.15;;;;;;;;;;5102834;28;20020;-73
2022/02/20 04:39:52;;;;;;;2.75;0.73;;;;;;;;;;5104319;28;20066;-73
2022/02/20 04:42:17;;;;;;;8.38;1.10;;;;;;;;;;5104544;28;20028;-73
2022/02/20 04:44:43;;;;;;;5.45;0.85;;;;;;;;;;5104298;28;20381;-73
2022/02/20 04:47:11;;;;;;;7.55;1.35;;;;;;;;;;5104307;28;20025;-72
2022/02/20 04:49:36;;;;;;;5.03;0.82;;;;;;;;;;5104136;28;20053;-72
2022/02/20 04:52:03;;;;;;;11.00;1.00;;;;;;;;;;5102488;28;20059;-73
2022/02/20 04:54:29;;;;;;;7.25;1.08;;;;;;;;;;5104219;28;20621;-73
2022/02/20 04:56:54;;;;;;;4.68;0.70;;;;;;;;;;5104161;28;20024;-73
2022/02/20 04:59:19;;;;;;;5.50;0.80;;;;;;;;;;5104146;28;20031;-74
2022/02/20 05:01:45;;;;;;;4.68;0.80;;;;;;;;;;5102728;28;20035;-72
2022/02/20 05:04:10;;;;;;;3.28;0.45;;;;;;;;;;5104066;28;20131;-72
2022/02/20 05:06:36;;;;;;;4.05;0.73;;;;;;;;;;5103828;28;20038;-73
2022/02/20 05:09:02;;;;;;;5.18;0.68;;;;;;;;;;5103941;28;20028;-72
2022/02/20 05:11:29;;;;;;;3.40;1.00;;;;;;;;;;5103511;28;20039;-72
2022/02/20 05:13:56;;;;;;;3.88;0.70;;;;;;;;;;5102349;28;20032;-72
2022/02/20 05:16:22;;;;;;;2.92;0.95;;;;;;;;;;5102482;28;20032;-73
2022/02/20 05:18:47;;;;;;;3.03;0.75;;;;;;;;;;5103745;28;20050;-72
2022/02/20 05:21:13;;;;;;;3.33;0.68;;;;;;;;;;5103817;28;20032;-73
2022/02/20 05:23:38;;;;;;;3.85;0.85;;;;;;;;;;5101371;28;20047;-71
2022/02/20 05:26:04;;;;;;;4.43;0.63;;;;;;;;;;5103581;28;20095;-73
2022/02/20 05:28:29;;;;;;;4.32;0.70;;;;;;;;;;5102238;28;20028;-73
2022/02/20 05:30:54;;;;;;;2.35;0.88;;;;;;;;;;5101483;28;20080;-72
2022/02/20 05:33:20;;;;;;;1.77;0.50;;;;;;;;;;5103438;28;20036;-72
2022/02/20 05:35:45;;;;;;;4.07;0.80;;;;;;;;;;5103466;28;20054;-72
2022/02/20 05:38:11;;;;;;;2.38;0.40;;;;;;;;;;5103108;28;20028;-73
2022/02/20 05:40:37;;;;;;;5.35;0.82;;;;;;;;;;5103230;28;20047;-73
2022/02/20 05:43:03;;;;;;;5.30;0.85;;;;;;;;;;5103554;28;20032;-73
2022/02/20 05:45:29;;;;;;;4.63;0.75;;;;;;;;;;5101790;28;20138;-72
2022/02/20 05:47:54;;;;;;;2.03;0.52;;;;;;;;;;5103330;28;20378;-73
2022/02/20 05:50:19;;;;;;;3.70;0.70;;;;;;;;;;5103224;28;20063;-73
2022/02/20 05:52:45;;;;;;;7.22;0.90;;;;;;;;;;5102947;28;20511;-73
2022/02/20 05:55:10;;;;;;;4.90;0.45;;;;;;;;;;5101828;28;20042;-73
2022/02/20 05:57:46;;;;;;;5.55;0.80;;;;;;;;;;5103510;28;20059;-73
2022/02/20 06:00:14;;;;;;;5.57;0.80;;;;;;;;;;5103208;28;20131;-73
2022/02/20 06:02:40;;;;;;;7.75;0.98;;;;;;;;;;5101600;28;20524;-72
2022/02/20 06:05:06;;;;;;;5.45;0.80;;;;;;;;;;5103017;28;20028;-73
2022/02/20 06:07:32;;;;;;;7.25;1.05;;;;;;;;;;5103090;28;20032;-72
2022/02/20 06:09:57;;;;;;;4.03;0.75;;;;;;;;;;5102911;28;20032;-72
2022/02/20 06:12:22;;;;;;;3.35;0.60;;;;;;;;;;5103121;28;20028;-72
2022/02/20 06:14:48;;;;;;;4.15;0.90;;;;;;;;;;5101249;28;20036;-73
2022/02/20 06:17:13;;;;;;;5.13;0.50;;;;;;;;;;5103031;28;20059;-72
2022/02/20 06:19:39;;;;;;;3.97;0.60;;;;;;;;;;5101556;28;20039;-73
2022/02/20 06:22:04;;;;;;;2.92;0.38;;;;;;;;;;5102988;28;20062;-73
2022/02/20 06:24:29;;;;;;;2.53;0.65;;;;;;;;;;5102815;28;20046;-72
2022/02/20 06:26:55;;;;;;;1.15;0.35;;;;;;;;;;5102600;28;20031;-72
2022/02/20 06:29:20;;;;;;;3.55;0.80;;;;;;;;;;5101387;28;20590;-73
2022/02/20 06:31:46;;;;;;;5.78;0.65;;;;;;;;;;5102675;28;20024;-73
2022/02/20 06:34:11;;;;;;;0.30;0.30;;;;;;;;;;5103446;28;20067;-73
2022/02/20 06:36:36;;;;;;;2.58;0.60;;;;;;;;;;5107021;28;20032;-73
2022/02/20 06:39:03;;;;;;;0.40;0.38;;;;;;;;;;5107191;28;20111;-73
2022/02/20 06:41:29;;;;;;;4.53;0.60;;;;;;;;;;5106625;28;20032;-73
2022/02/20 06:43:54;;;;;;;1.02;0.47;;;;;;;;;;5106868;28;20038;-73
2022/02/20 06:46:20;;;;;;;2.85;1.58;;;;;;;;;;5106799;28;20032;-73
2022/02/20 06:48:45;;;;;;;1.77;0.50;;;;;;;;;;5106535;28;20024;-72
2022/02/20 06:51:11;;;;;;;1.30;0.43;;;;;;;;;;5106346;28;20563;-74
2022/02/20 06:53:36;;;;;;;1.55;0.38;;;;;;;;;;5106915;28;20087;-72
2022/02/20 06:56:01;;;;;;;2.53;0.70;;;;;;;;;;5106554;28;20059;-73
2022/02/20 06:58:27;;;;;;;1.85;0.45;;;;;;;;;;5106330;28;20150;-72
2022/02/20 07:00:52;;;;;;;2.40;0.70;;;;;;;;;;5106515;28;20040;-73
2022/02/20 07:03:17;;;;;;;1.58;0.45;;;;;;;;;;5106556;28;20036;-73
2022/02/20 07:05:43;;;;;;;2.45;0.52;;;;;;;;;;5106413;28;20024;-72
2022/02/20 07:08:08;;;;;;;6.63;0.88;;;;;;;;;;5104472;28;20028;-73
2022/02/20 07:10:34;;;;;;;2.50;0.60;;;;;;;;;;5105292;28;20097;-73
2022/02/20 07:12:59;;;;;;;2.55;0.68;;;;;;;;;;5105750;28;20024;-72
2022/02/20 07:15:25;;;;;;;1.65;0.68;;;;;;;;;;5105743;28;20043;-72
2022/02/20 07:17:51;;;;;;;0.90;0.30;;;;;;;;;;5106060;28;20085;-73
2022/02/20 07:20:17;;;;;;;1.23;0.45;;;;;;;;;;5106214;28;20461;-73
2022/02/20 07:22:42;;;;;;;2.15;0.60;;;;;;;;;;5104528;28;20058;-72
2022/02/20 07:25:08;;;;;;;2.53;0.60;;;;;;;;;;5105732;28;20267;-73
2022/02/20 07:27:39;;;;;;;0.95;0.40;;;;;;;;;;5106200;28;20031;-73
2022/02/20 07:30:05;;;;;;;2.17;0.40;;;;;;;;;;5104696;28;20046;-73
2022/02/20 07:32:31;;;;;;;2.08;0.60;;;;;;;;;;5105792;28;20032;-73
2022/02/20 07:34:56;;;;;;;1.65;0.50;;;;;;;;;;5105784;28;20035;-72
2022/02/20 07:37:21;;;;;;;1.25;0.57;;;;;;;;;;5105177;28;20049;-73
2022/02/20 07:39:47;;;;;;;0.95;0.20;;;;;;;;;;5104375;28;20024;-74
2022/02/20 07:42:13;;;;;;;1.25;0.50;;;;;;;;;;5105847;28;20028;-72
2022/02/20 07:44:39;;;;;;;1.38;0.35;;;;;;;;;;5104196;28;20081;-73
2022/02/20 07:47:05;;;;;;;2.05;0.45;;;;;;;;;;5103905;28;20028;-73
2022/02/20 07:49:30;;;;;;;1.17;0.40;;;;;;;;;;5105695;28;20055;-73
2022/02/20 07:51:56;;;;;;;2.28;0.50;;;;;;;;;;5104209;28;20024;-73
2022/02/20 07:54:21;;;;;;;1.05;0.50;;;;;;;;;;5105266;28;20118;-73
2022/02/20 07:56:46;;;;;;;2.95;0.35;;;;;;;;;;5104004;28;20028;-73
2022/02/20 07:59:12;;;;;;;1.23;0.50;;;;;;;;;;5105422;28;20020;-72
2022/02/20 08:01:37;;;;;;;1.23;0.40;;;;;;;;;;5105370;28;20503;-72
2022/02/20 08:04:03;;;;;;;3.05;0.70;;;;;;;;;;5105578;28;20118;-73
2022/02/20 08:06:28;;;;;;;2.60;0.65;;;;;;;;;;5105416;28;20529;-73
2022/02/20 08:08:54;;;;;;;5.53;0.93;;;;;;;;;;5105430;28;20024;-73
2022/02/20 08:11:20;;;;;;;1.90;0.40;;;;;;;;;;5103685;28;20392;-73
2022/02/20 08:13:45;;;;;;;0.73;0.43;;;;;;;;;;5104870;28;20036;-72
2022/02/20 08:16:11;;;;;;;0.65;0.28;;;;;;;;;;5104765;28;20035;-73
2022/02/20 08:18:36;;;;;;;1.23;0.40;;;;;;;;;;5105340;28;20043;-72
2022/02/20 08:21:02;;;;;;;0.45;0.28;;;;;;;;;;5103561;28;20055;-72
2022/02/20 08:23:27;;;;;;;0.20;0.20;;;;;;;;;;5104593;28;20043;-72
2022/02/20 08:25:52;;;;;;;0.47;0.40;;;;;;;;;;5104740;28;20035;-72
2022/02/20 08:28:18;;;;;;;0.28;0.28;;;;;;;;;;5104954;28;20031;-73
2022/02/20 08:30:43;;;;;;;1.33;0.30;;;;;;;;;;5104919;28;20032;-72
2022/02/20 08:33:09;;;;;;;0.20;0.20;;;;;;;;;;5104630;28;20134;-71
2022/02/20 08:35:34;;;;;;;0.50;0.25;;;;;;;;;;5104758;28;20032;-73
2022/02/20 08:38:01;;;;;;;0.80;0.40;;;;;;;;;;5104578;28;20084;-72
2022/02/20 08:40:27;;;;;;;1.42;0.30;;;;;;;;;;5103350;28;20028;-72
2022/02/20 08:42:52;;;;;;;1.98;0.38;;;;;;;;;;5104634;28;20028;-72
2022/02/20 08:45:18;;;;;;;3.10;0.32;;;;;;;;;;5103131;28;20239;-71
2022/02/20 08:47:45;;;;;;;0.85;0.50;;;;;;;;;;5104751;28;20107;-72
2022/02/20 08:50:12;;;;;;;0.30;0.30;;;;;;;;;;5104401;28;20036;-72
2022/02/20 08:52:38;;;;;;;0.85;0.30;;;;;;;;;;5104464;28;20131;-72
2022/02/20 08:55:05;;;;;;;1.10;0.43;;;;;;;;;;5104357;28;20104;-72
2022/02/20 08:57:31;;;;;;;0.90;0.28;;;;;;;;;;5103474;28;20081;-72
2022/02/20 08:59:58;;;;;;;1.17;0.32;;;;;;;;;;5104184;28;20028;-72
2022/02/20 09:02:24;;;;;;;0.80;0.40;;;;;;;;;;5104213;28;20122;-72
2022/02/20 09:04:50;;;;;;;1.15;0.30;;;;;;;;;;5104007;28;20039;-72
2022/02/20 09:07:15;;;;;;;0.35;0.30;;;;;;;;;;5104303;28;20201;-73
2022/02/20 09:09:41;;;;;;;1.33;0.40;;;;;;;;;;5102654;28;20036;-71
2022/02/20 09:12:09;;;;;;;0.93;0.43;;;;;;;;;;5102641;28;20078;-72
2022/02/20 09:14:35;;;;;;;0.70;0.30;;;;;;;;;;5103929;28;20027;-71
2022/02/20 09:17:01;;;;;;;0.25;0.25;;;;;;;;;;5103909;28;20036;-72
2022/02/20 09:19:29;;;;;;;1.67;0.28;;;;;;;;;;5104128;28;20056;-71
2022/02/20 09:21:55;;;;;;;0.88;0.40;;;;;;;;;;5103857;28;20039;-72
2022/02/20 09:24:21;;;;;;;0.52;0.25;;;;;;;;;;5103699;28;20048;-73
2022/02/20 09:26:46;;;;;;;1.20;0.30;;;;;;;;;;5104098;28;20492;-72
2022/02/20 09:29:12;;;;;;;0.22;0.22;;;;;;;;;;5103267;28;20039;-72
2022/02/20 09:31:38;;;;;;;0.30;0.30;;;;;;;;;;5104233;28;20088;-71
2022/02/20 09:34:03;;;;;;;0.85;0.30;;;;;;;;;;5104355;28;20055;-72
2022/02/20 09:36:29;;;;;;;0.80;0.47;;;;;;;;;;5104034;28;20062;-72
2022/02/20 09:39:00;;;;;;;0.80;0.30;;;;;;;;;;5102883;28;20028;-72
2022/02/20 09:41:35;;;;;;;0.20;0.20;;;;;;;;;;5102463;28;20075;-71
2022/02/20 09:44:02;;;;;;;0.20;0.20;;;;;;;;;;5102812;28;20326;-72
2022/02/20 09:46:31;;;;;;;0.63;0.30;;;;;;;;;;5103845;28;20034;-71
2022/02/20 09:48:58;;;;;;;1.42;0.40;;;;;;;;;;5103964;28;20081;-72
2022/02/20 09:51:27;;;;;;;1.27;0.40;;;;;;;;;;5104223;28;20031;-72
2022/02/20 09:53:52;;;;;;;1.55;0.38;;;;;;;;;;5102609;28;20481;-73
2022/02/20 09:56:18;;;;;;;0.35;0.30;;;;;;;;;;5102334;28;20059;-72
2022/02/20 09:58:43;;;;;;;0.38;0.30;;;;;;;;;;5103785;28;20028;-71
2022/02/20 10:01:14;;;;;;;0.43;0.30;;;;;;;;;;5103560;28;20027;-72
2022/02/20 10:03:44;;;;;;;0.63;0.30;;;;;;;;;;5103933;28;20032;-72
2022/02/20 10:06:13;;;;;;;0.75;0.47;;;;;;;;;;5103572;28;20028;-71
2022/02/20 10:08:42;;;;;;;1.40;0.20;;;;;;;;;;5102851;28;20334;-71
2022/02/20 10:11:27;;;;;;;0.73;0.30;;;;;;;;;;5103707;28;20050;-72
2022/02/20 10:13:54;;;;;;;0.20;0.20;;;;;;;;;;5103548;28;20048;-72
2022/02/20 10:16:27;;;;;;;0.57;0.28;;;;;;;;;;5103574;28;20326;-72
2022/02/20 10:18:55;;;;;;;0.30;0.30;;;;;;;;;;5103906;28;20087;-72
2022/02/20 10:21:32;;;;;;;0.50;0.32;;;;;;;;;;5103866;28;20057;-72
2022/02/20 10:24:05;;;;;;;0.90;0.30;;;;;;;;;;5103047;28;20051;-72
2022/02/20 10:26:33;;;;;;;0.47;0.30;;;;;;;;;;5103238;28;20028;-72
2022/02/20 10:29:04;;;;;;;0.63;0.38;;;;;;;;;;5101989;28;20364;-72
2022/02/20 10:31:38;;;;;;;0.95;0.30;;;;;;;;;;5103162;28;20024;-73
2022/02/20 10:34:10;;;;;;;0.82;0.30;;;;;;;;;;5103476;28;20056;-72
2022/02/20 10:36:55;;;;;;;0.20;0.20;;;;;;;;;;5103644;28;20561;-72
2022/02/20 10:39:26;;;;;;;2.17;0.50;;;;;;;;;;5103786;28;20347;-72
2022/02/20 10:41:53;;;;;;;2.25;0.30;;;;;;;;;;5101896;28;20135;-72
2022/02/20 10:44:20;;;;;;;0.50;0.20;;;;;;;;;;5103333;28;20032;-72
2022/02/20 10:46:46;;;;;;;0.22;0.20;;;;;;;;;;5103321;28;20024;-72
2022/02/20 10:49:27;;;;;;;0.50;0.30;;;;;;;;;;5103384;28;20035;-72
2022/02/20 10:51:53;;;;;;;1.35;0.30;;;;;;;;;;5103328;28;20028;-72
2022/02/20 10:54:18;;;;;;;0.30;0.30;;;;;;;;;;5103340;28;20028;-72
2022/02/20 10:56:45;;;;;;;0.60;0.32;;;;;;;;;;5102893;28;20044;-71
2022/02/20 10:59:10;;;;;;;0.35;0.28;;;;;;;;;;5103164;28;20039;-72
2022/02/20 11:01:36;;;;;;;0.90;0.30;;;;;;;;;;5103188;28;20028;-74
2022/02/20 11:04:01;;;;;;;1.42;0.40;;;;;;;;;;5103439;28;20059;-71
2022/02/20 11:06:29;;;;;;;1.52;0.40;;;;;;;;;;5102954;28;20020;-73
2022/02/20 11:08:56;;;;;;;1.23;0.40;;;;;;;;;;5103358;28;20031;-72
2022/02/20 11:11:37;;;;;;;0.30;0.30;;;;;;;;;;5103094;28;20032;-72
2022/02/20 11:14:04;;;;;;;1.95;0.52;;;;;;;;;;5102607;28;20020;-72
2022/02/20 11:16:32;;;;;;;0.57;0.32;;;;;;;;;;5101387;28;20039;-72
2022/02/20 11:19:02;;;;;;;0.75;0.35;;;;;;;;;;5102362;28;20032;-74
2022/02/20 11:21:28;;;;;;;1.02;0.52;;;;;;;;;;5104656;28;20036;-73
2022/02/20 11:23:58;;;;;;;0.80;0.40;;;;;;;;;;5105446;28;20052;-72
2022/02/20 11:26:25;;;;;;;0.30;0.30;;;;;;;;;;5104769;28;20028;-72
2022/02/20 11:28:51;;;;;;;1.02;0.50;;;;;;;;;;5105653;28;20024;-73
2022/02/20 11:31:19;;;;;;;1.02;0.52;;;;;;;;;;5105726;28;20050;-72
2022/02/20 11:33:51;;;;;;;2.33;0.45;;;;;;;;;;5105861;28;20115;-72
2022/02/20 11:36:18;;;;;;;0.73;0.40;;;;;;;;;;5106201;28;20080;-72
2022/02/20 11:39:01;;;;;;;0.55;0.40;;;;;;;;;;5105994;28;20036;-73
2022/02/20 11:41:26;;;;;;;1.75;0.30;;;;;;;;;;5105644;28;20424;-73
2022/02/20 11:43:52;;;;;;;0.50;0.40;;;;;;;;;;5105976;28;20028;-72
2022/02/20 11:46:22;;;;;;;0.43;0.40;;;;;;;;;;5105637;28;20024;-72
2022/02/20 11:49:03;;;;;;;0.82;0.40;;;;;;;;;;5105701;28;20031;-71
2022/02/20 11:51:33;;;;;;;0.38;0.38;;;;;;;;;;5104262;28;20103;-72
2022/02/20 11:54:20;;;;;;;0.28;0.25;;;;;;;;;;5105255;28;20062;-72
2022/02/20 11:57:25;;;;;;;2.20;0.95;;;;;;;;;;5105306;28;20062;-72
2022/02/20 12:00:03;;;;;;;2.47;0.50;;;;;;;;;;5105017;28;20035;-72
2022/02/20 12:02:30;;;;;;;1.60;0.50;;;;;;;;;;5103901;28;20031;-72
2022/02/20 12:04:55;;;;;;;1.45;0.43;;;;;;;;;;5105055;28;20507;-72
2022/02/20 12:07:31;;;;;;;2.40;0.50;;;;;;;;;;5105023;28;20063;-71
2022/02/20 12:10:30;;;;;;;2.97;0.55;;;;;;;;;;5105251;28;20513;-72
2022/02/20 12:13:18;;;;;;;0.30;0.30;;;;;;;;;;5081545;28;20040;-72
2022/02/20 12:15:45;;;;;;;2.03;0.40;;;;;;;;;;5105199;28;20050;-73
2022/02/20 12:18:10;;;;;;;0.52;0.35;;;;;;;;;;5105064;28;20035;-73
2022/02/20 12:20:51;;;;;;;1.15;0.75;;;;;;;;;;5105232;28;20056;-73
2022/02/20 12:23:31;;;;;;;0.47;0.32;;;;;;;;;;5103179;28;20093;-72
2022/02/20 12:26:00;;;;;;;1.15;0.40;;;;;;;;;;5103585;28;20032;-74
2022/02/20 12:28:42;;;;;;;0.60;0.60;;;;;;;;;;5105294;28;20059;-72
2022/02/20 12:31:30;;;;;;;0.40;0.40;;;;;;;;;;5105147;28;20024;-73
2022/02/20 12:33:55;;;;;;;0.40;0.40;;;;;;;;;;5104772;28;20032;-72
2022/02/20 12:36:30;;;;;;;1.92;0.43;;;;;;;;;;5104815;28;20075;-73
2022/02/20 12:39:03;;;;;;;0.40;0.30;;;;;;;;;;5104778;28;20031;-73
2022/02/20 12:41:29;;;;;;;0.57;0.40;;;;;;;;;;5104932;28;20030;-73
2022/02/20 12:43:57;;;;;;;0.38;0.30;;;;;;;;;;5104582;28;20068;-72
2022/02/20 12:46:23;;;;;;;2.83;0.40;;;;;;;;;;5103195;28;20123;-73
2022/02/20 12:48:50;;;;;;;0.95;0.32;;;;;;;;;;5104744;28;20028;-72
2022/02/20 12:51:16;;;;;;;0.63;0.40;;;;;;;;;;5102967;28;20028;-73
2022/02/20 12:53:42;;;;;;;2.80;0.43;;;;;;;;;;5102905;28;20525;-72
2022/02/20 12:56:09;;;;;;;0.50;0.50;;;;;;;;;;5104504;28;20032;-73
2022/02/20 12:58:51;;;;;;;3.00;0.80;;;;;;;;;;5103156;28;20046;-72
2022/02/20 13:01:19;;;;;;;0.77;0.30;;;;;;;;;;5104414;28;20074;-73
2022/02/20 13:03:51;;;;;;;0.52;0.40;;;;;;;;;;5104201;28;20087;-72
2022/02/20 13:06:17;;;;;;;0.63;0.40;;;;;;;;;;5104240;28;20028;-73
2022/02/20 13:08:42;;;;;;;0.88;0.57;;;;;;;;;;5102601;28;20437;-73
2022/02/20 13:11:10;;;;;;;0.77;0.32;;;;;;;;;;5103981;28;20032;-73
2022/02/20 13:13:36;;;;;;;0.30;0.30;;;;;;;;;;5104122;28;20085;-73
2022/02/20 13:16:03;;;;;;;1.05;0.30;;;;;;;;;;5103172;28;20115;-73
2022/02/20 13:18:31;;;;;;;0.30;0.30;;;;;;;;;;5102700;28;20024;-72
2022/02/20 13:21:07;;;;;;;2.53;0.40;;;;;;;;;;5101911;28;20032;-73
2022/02/20 13:23:37;;;;;;;1.30;0.50;;;;;;;;;;5103757;28;20103;-73
2022/02/20 13:26:17;;;;;;;2.17;0.25;;;;;;;;;;5103487;28;20258;-72
2022/02/20 13:28:48;;;;;;;0.68;0.30;;;;;;;;;;5103792;28;20024;-73
2022/02/20 13:31:19;;;;;;;0.93;0.30;;;;;;;;;;5103691;28;20050;-73
2022/02/20 13:33:48;;;;;;;1.02;0.32;;;;;;;;;;5103614;28;20031;-73
2022/02/20 13:36:18;;;;;;;0.30;0.30;;;;;;;;;;5103535;28;20028;-73
2022/02/20 13:38:46;;;;;;;0.28;0.20;;;;;;;;;;5103741;28;20062;-73
2022/02/20 13:41:20;;;;;;;1.45;0.30;;;;;;;;;;5103753;28;20058;-72
2022/02/20 13:43:54;;;;;;;0.90;0.50;;;;;;;;;;5101734;28;20054;-73
2022/02/20 13:46:44;;;;;;;0.30;0.30;;;;;;;;;;5103585;28;20066;-73
2022/02/20 13:49:11;;;;;;;1.50;0.30;;;;;;;;;;5103461;28;20028;-73
2022/02/20 13:51:44;;;;;;;1.67;0.50;;;;;;;;;;5103439;28;20048;-74
2022/02/20 13:54:14;;;;;;;0.80;0.50;;;;;;;;;;5103246;28;20496;-73
2022/02/20 13:56:55;;;;;;;0.70;0.30;;;;;;;;;;5103085;28;20027;-73
2022/02/20 13:59:22;;;;;;;0.70;0.43;;;;;;;;;;5103479;28;20054;-74
2022/02/20 14:01:55;;;;;;;0.75;0.40;;;;;;;;;;5102936;28;20096;-73
2022/02/20 14:04:21;;;;;;;0.45;0.28;;;;;;;;;;5101972;28;20032;-73
2022/02/20 14:06:46;;;;;;;1.17;0.35;;;;;;;;;;5103073;28;20097;-73
2022/02/20 14:09:13;;;;;;;0.47;0.32;;;;;;;;;;5102930;28;20022;-73
2022/02/20 14:11:39;;;;;;;0.88;0.40;;;;;;;;;;5101357;28;20061;-73
2022/02/20 14:14:18;;;;;;;0.57;0.30;;;;;;;;;;5101545;28;20024;-73
2022/02/20 14:16:59;;;;;;;0.60;0.35;;;;;;;;;;5103186;28;20089;-73
2022/02/20 14:19:25;;;;;;;1.27;0.43;;;;;;;;;;5103109;28;20066;-74
2022/02/20 14:21:58;;;;;;;0.73;0.30;;;;;;;;;;5102943;28;20040;-73
2022/02/20 14:24:26;;;;;;;1.27;0.38;;;;;;;;;;5102869;28;20181;-73
2022/02/20 14:27:03;;;;;;;0.75;0.40;;;;;;;;;;5102548;28;20036;-73
2022/02/20 14:29:29;;;;;;;0.73;0.30;;;;;;;;;;5103082;28;20046;-73
2022/02/20 14:32:03;;;;;;;0.65;0.30;;;;;;;;;;5102853;28;20020;-73
2022/02/20 14:34:29;;;;;;;1.00;0.30;;;;;;;;;;5102662;28;20032;-73
2022/02/20 14:37:08;;;;;;;0.75;0.40;;;;;;;;;;5102700;28;20123;-73
2022/02/20 14:39:34;;;;;;;1.30;0.28;;;;;;;;;;5102725;28;20028;-73
2022/02/20 14:42:00;;;;;;;1.63;0.40;;;;;;;;;;5102812;28;20051;-73
2022/02/20 14:44:27;;;;;;;0.20;0.20;;;;;;;;;;5101779;28;20024;-73